Time;durP1;ratioP1;P1;durP2;ratioP2;P2;SDS_P1;SDS_P2;PMS_P1;PMS_P2;Temp;Humidity;BMP_temperature;BMP_pressure;BME280_temperature;BME280_humidity;BME280_pressure;Samples;Min_cycle;Max_cycle;Signal;HPM_P1;HPM_P2
2022/07/31 00:00:14;;;;;;;2.10;1.85;;;14.90;1.40;;;16.18;100.00;95671.05;618629;222;31909;-72
2022/07/31 00:02:56;;;;;;;1.92;1.70;;;14.80;1.40;;;16.13;100.00;95671.12;654486;216;31623;-71
2022/07/31 00:05:37;;;;;;;2.08;1.87;;;14.70;1.40;;;16.10;100.00;95677.97;644237;216;31712;-72
2022/07/31 00:08:19;;;;;;;2.05;1.85;;;14.60;1.40;;;16.07;100.00;95672.11;649046;216;31524;-71
2022/07/31 00:11:01;;;;;;;2.40;1.40;;;14.60;1.40;;;16.00;100.00;95673.36;624528;225;31855;-72
2022/07/31 00:13:43;;;;;;;1.50;1.40;;;14.40;1.40;;;15.92;100.00;95672.63;617622;226;32376;-73
2022/07/31 00:16:24;;;;;;;1.67;1.48;;;14.40;1.40;;;15.87;100.00;95670.07;641461;212;31671;-71
2022/07/31 00:19:06;;;;;;;1.50;1.40;;;14.50;1.40;;;15.75;100.00;95666.25;618825;226;31892;-72
2022/07/31 00:21:48;;;;;;;1.70;0.90;;;14.40;1.40;;;15.78;100.00;95663.63;646261;216;32194;-71
2022/07/31 00:24:33;;;;;;;1.50;1.40;;;14.50;1.40;;;15.80;100.00;95658.64;648791;212;31577;-71
2022/07/31 00:27:14;;;;;;;1.65;1.40;;;14.50;1.40;;;15.83;100.00;95657.57;644380;216;31575;-72
2022/07/31 00:29:56;;;;;;;1.20;1.10;;;14.50;1.40;;;15.84;100.00;95655.59;647411;212;31529;-73
2022/07/31 00:32:38;;;;;;;1.98;1.67;;;14.60;1.40;;;15.84;100.00;95657.59;652632;216;31907;-71
2022/07/31 00:35:50;;;;;;;3.05;1.10;;;14.50;1.40;;;15.75;100.00;95651.44;653227;212;31555;-73
2022/07/31 00:38:32;;;;;;;1.60;1.50;;;14.50;1.40;;;15.79;100.00;95648.22;646790;212;31601;-71
2022/07/31 00:41:14;;;;;;;1.62;1.40;;;14.60;1.40;;;15.92;100.00;95650.65;651257;216;32073;-71
2022/07/31 00:43:56;;;;;;;1.20;1.10;;;14.80;1.40;;;16.16;100.00;95648.95;653073;212;42179;-71
2022/07/31 00:46:37;;;;;;;1.35;1.10;;;15.30;1.40;;;16.33;100.00;95648.59;646999;212;31520;-71
2022/07/31 00:49:19;;;;;;;2.62;1.98;;;15.50;1.40;;;16.45;100.00;95653.49;645018;216;31614;-71
2022/07/31 00:52:06;;;;;;;1.48;1.37;;;15.40;1.40;;;16.49;100.00;95656.87;649655;216;32072;-72
2022/07/31 00:54:47;;;;;;;2.30;1.20;;;15.30;1.40;;;16.54;100.00;95658.66;648318;212;31519;-71
2022/07/31 00:57:29;;;;;;;1.23;1.10;;;15.20;1.40;;;16.53;100.00;95655.64;649867;212;31478;-70
2022/07/31 01:00:13;;;;;;;1.70;1.60;;;15.20;1.40;;;16.54;100.00;95656.31;623200;226;32521;-70
2022/07/31 01:02:54;;;;;;;3.70;1.50;;;15.20;1.40;;;16.57;100.00;95659.98;653943;216;31549;-72
2022/07/31 01:05:36;;;;;;;1.30;1.20;;;15.40;1.40;;;16.70;100.00;95655.16;651298;216;31637;-72
2022/07/31 01:08:18;;;;;;;1.90;1.80;;;15.60;1.40;;;16.79;100.00;95655.49;651964;216;31822;-72
2022/07/31 01:11:04;;;;;;;1.48;1.37;;;15.70;1.40;;;16.86;100.00;95664.81;618664;226;31887;-71
2022/07/31 01:13:49;;;;;;;1.65;1.55;;;15.60;1.40;;;16.97;100.00;95658.87;654003;216;31674;-72
2022/07/31 01:16:30;;;;;;;1.73;1.62;;;15.60;1.40;;;17.06;100.00;95656.58;639004;212;31718;-74
2022/07/31 01:22:36;;;;;;;1.70;1.40;;;15.70;1.40;;;17.19;100.00;95658.46;644089;212;31563;-72
2022/07/31 01:25:30;;;;;;;1.45;1.23;;;15.60;1.40;;;17.17;100.00;95656.34;646366;216;31512;-71
2022/07/31 01:28:18;;;;;;;3.50;1.45;;;15.60;1.40;;;17.08;100.00;95657.17;621273;226;31858;-71
2022/07/31 01:31:00;;;;;;;3.90;1.45;;;15.50;1.40;;;17.06;100.00;95656.21;645215;216;31530;-71
2022/07/31 01:35:53;;;;;;;1.20;1.10;;;15.40;1.40;;;16.85;100.00;95649.69;648965;216;32125;-71
2022/07/31 01:38:35;;;;;;;2.03;1.83;;;15.30;1.40;;;16.92;100.00;95648.27;644466;216;31546;-72
2022/07/31 01:41:17;;;;;;;1.75;1.65;;;15.50;1.40;;;17.02;100.00;95651.73;647413;216;31500;-71
2022/07/31 01:43:58;;;;;;;1.45;1.35;;;15.70;1.40;;;17.07;100.00;95648.50;619771;226;31838;-71
2022/07/31 01:46:43;;;;;;;1.60;1.50;;;15.80;1.40;;;17.17;100.00;95648.20;644713;212;31564;-72
2022/07/31 01:49:25;;;;;;;1.95;1.70;;;15.80;1.40;;;17.21;100.00;95648.33;646671;216;32125;-72
2022/07/31 01:52:07;;;;;;;1.15;1.10;;;15.80;1.40;;;17.16;100.00;95639.61;647653;216;31517;-72
2022/07/31 01:54:49;;;;;;;1.40;1.30;;;15.80;1.40;;;17.14;100.00;95642.84;645103;216;32236;-72
2022/07/31 01:57:31;;;;;;;1.25;1.15;;;15.80;1.40;;;17.13;100.00;95638.88;648250;216;31583;-72
2022/07/31 02:00:13;;;;;;;1.50;1.40;;;15.90;1.40;;;17.23;100.00;95644.77;648210;216;32074;-71
2022/07/31 02:02:55;;;;;;;1.70;1.60;;;15.90;1.40;;;17.27;100.00;95642.80;647247;212;32084;-71
2022/07/31 02:05:36;;;;;;;1.30;1.20;;;15.90;1.40;;;17.26;100.00;95647.02;649962;216;31616;-71
2022/07/31 02:08:22;;;;;;;1.37;1.27;;;15.80;1.40;;;17.29;100.00;95645.03;651166;212;31506;-71
2022/07/31 02:11:03;;;;;;;1.35;1.20;;;15.90;1.40;;;17.39;100.00;95647.56;650248;212;31657;-72
2022/07/31 02:13:45;;;;;;;1.42;1.15;;;15.90;1.40;;;17.29;100.00;95645.30;647910;216;31541;-71
2022/07/31 02:16:29;;;;;;;2.62;1.40;;;15.90;1.40;;;17.18;100.00;95644.52;632544;216;31693;-72
2022/07/31 02:19:13;;;;;;;1.12;1.02;;;15.80;1.40;;;17.16;100.00;95648.90;644688;212;32060;-71
2022/07/31 02:21:55;;;;;;;1.37;1.27;;;15.70;1.40;;;17.19;100.00;95642.27;644137;212;42112;-71
2022/07/31 02:24:37;;;;;;;4.20;1.40;;;15.70;1.40;;;17.21;100.00;95642.48;645608;216;32322;-73
2022/07/31 02:27:18;;;;;;;1.48;1.37;;;15.90;1.40;;;17.35;100.00;95648.36;646947;216;31612;-71
2022/07/31 02:30:01;;;;;;;1.35;1.20;;;15.90;1.40;;;17.30;100.00;95649.72;616141;226;31969;-71
2022/07/31 02:32:42;;;;;;;1.52;1.33;;;16.00;1.40;;;17.39;100.00;95649.84;644425;216;32665;-71
2022/07/31 02:35:56;;;;;;;1.40;1.30;;;16.00;1.40;;;17.31;100.00;95648.65;646000;215;42174;-73
2022/07/31 02:38:37;;;;;;;1.58;1.30;;;16.10;1.40;;;17.39;100.00;95651.44;653499;216;31583;-71
2022/07/31 02:41:19;;;;;;;1.37;1.20;;;16.10;1.40;;;17.34;100.00;95647.86;652039;216;31497;-70
2022/07/31 02:44:01;;;;;;;1.90;1.17;;;16.00;1.40;;;17.38;100.00;95648.30;648454;212;31586;-73
2022/07/31 02:46:43;;;;;;;1.60;1.30;;;16.00;1.40;;;17.38;100.00;95648.55;646831;216;31580;-71
2022/07/31 02:49:24;;;;;;;1.27;1.17;;;16.10;1.40;;;17.35;100.00;95648.65;648141;216;31487;-71
2022/07/31 02:52:06;;;;;;;1.40;1.30;;;16.00;1.40;;;17.37;100.00;95643.11;645616;216;31518;-71
2022/07/31 02:54:47;;;;;;;1.23;1.12;;;16.00;1.40;;;17.37;100.00;95643.77;647151;216;31516;-71
2022/07/31 02:57:29;;;;;;;2.15;1.50;;;15.90;1.40;;;17.33;100.00;95646.00;648157;212;31564;-71
2022/07/31 03:00:22;;;;;;;1.65;1.23;;;15.90;1.40;;;17.35;100.00;95644.41;645865;212;32024;-71
2022/07/31 03:03:07;;;;;;;1.20;1.10;;;15.90;1.40;;;17.38;100.00;95644.44;644411;216;31502;-71
2022/07/31 03:05:48;;;;;;;1.30;1.20;;;15.80;1.40;;;17.35;100.00;95644.05;644551;212;31654;-71
2022/07/31 03:08:30;;;;;;;1.48;1.10;;;15.70;1.40;;;17.31;100.00;95639.27;649990;216;31547;-71
2022/07/31 03:11:12;;;;;;;1.55;1.30;;;15.60;1.40;;;17.15;100.00;95635.53;646397;216;31482;-70
2022/07/31 03:13:57;;;;;;;1.87;1.33;;;15.50;1.40;;;17.05;100.00;95638.94;646805;216;31519;-71
2022/07/31 03:16:38;;;;;;;1.12;1.02;;;15.50;1.40;;;17.03;100.00;95636.08;646180;212;32055;-71
2022/07/31 03:19:20;;;;;;;0.90;0.90;;;15.60;1.40;;;16.95;100.00;95638.64;646899;216;31477;-71
2022/07/31 03:24:39;;;;;;;1.60;1.30;;;15.80;1.40;;;17.04;100.00;95646.78;645236;212;31622;-71
2022/07/31 03:27:20;;;;;;;1.02;0.93;;;15.80;1.40;;;17.05;100.00;95648.56;619395;222;31805;-71
2022/07/31 03:30:02;;;;;;;1.15;0.80;;;15.80;1.40;;;17.18;100.00;95650.65;643746;212;31548;-71
2022/07/31 03:32:44;;;;;;;1.37;1.30;;;15.80;1.40;;;17.22;100.00;95656.94;648279;216;31494;-71
2022/07/31 03:35:52;;;;;;;2.40;1.10;;;15.80;1.40;;;17.23;100.00;95651.27;646848;212;31581;-71
2022/07/31 03:38:33;;;;;;;0.98;0.90;;;15.70;1.40;;;17.24;100.00;95653.83;646861;216;31585;-70
2022/07/31 03:41:14;;;;;;;1.33;0.90;;;15.60;1.40;;;17.11;100.00;95650.58;619127;222;32215;-73
2022/07/31 03:43:56;;;;;;;1.27;1.17;;;15.50;1.40;;;17.05;100.00;95644.41;649459;216;31540;-74
2022/07/31 03:46:38;;;;;;;1.17;1.17;;;15.60;1.40;;;17.05;100.00;95644.81;648671;216;31518;-71
2022/07/31 03:49:19;;;;;;;1.52;1.42;;;15.60;1.40;;;17.09;100.00;95646.75;648668;216;31538;-70
2022/07/31 03:52:02;;;;;;;1.30;1.10;;;15.70;1.40;;;17.07;100.00;95646.69;629509;222;31647;-71
2022/07/31 03:54:43;;;;;;;1.60;1.50;;;15.60;1.40;;;17.01;100.00;95645.80;644858;212;32037;-71
2022/07/31 03:57:31;;;;;;;1.27;1.17;;;15.50;1.40;;;16.92;100.00;95639.06;621043;226;42490;-79
2022/07/31 04:00:16;;;;;;;1.15;1.05;;;15.40;1.40;;;16.82;100.00;95640.32;647106;216;31553;-71
2022/07/31 04:03:00;;;;;;;1.10;1.00;;;15.30;1.40;;;16.76;100.00;95642.11;648835;216;31563;-71
2022/07/31 04:05:42;;;;;;;1.83;1.40;;;15.30;1.40;;;16.71;100.00;95641.66;647896;212;31478;-71
2022/07/31 04:08:24;;;;;;;1.30;1.20;;;15.30;1.40;;;16.69;100.00;95638.52;654351;216;32053;-70
2022/07/31 04:11:06;;;;;;;1.33;1.10;;;15.40;1.40;;;16.67;100.00;95638.12;617869;226;31984;-72
2022/07/31 04:13:47;;;;;;;1.10;0.90;;;15.50;1.40;;;16.73;100.00;95637.65;649081;212;31499;-70
2022/07/31 04:16:29;;;;;;;1.80;1.10;;;15.50;1.40;;;16.72;100.00;95642.49;637986;216;31650;-70
2022/07/31 04:19:11;;;;;;;1.20;0.90;;;15.60;1.40;;;16.84;100.00;95645.31;649984;216;31548;-71
2022/07/31 04:21:55;;;;;;;1.40;1.30;;;15.60;1.40;;;16.83;100.00;95645.52;644294;216;33430;-71
2022/07/31 04:24:37;;;;;;;1.30;1.12;;;15.60;1.40;;;16.86;100.00;95646.41;646857;212;31839;-70
2022/07/31 04:27:19;;;;;;;1.70;1.50;;;15.70;1.40;;;16.83;100.00;95647.56;646360;212;31502;-71
2022/07/31 04:30:04;;;;;;;1.10;1.00;;;15.60;1.40;;;16.90;100.00;95656.43;652337;216;32969;-71
2022/07/31 04:32:46;;;;;;;1.65;1.30;;;15.70;1.40;;;17.01;100.00;95658.46;646321;216;31541;-71
2022/07/31 04:35:50;;;;;;;1.30;1.20;;;15.80;1.40;;;17.19;100.00;95665.48;648040;216;31565;-71
2022/07/31 04:38:32;;;;;;;4.93;1.35;;;15.90;1.40;;;17.24;100.00;95670.34;646266;216;31483;-71
2022/07/31 04:41:16;;;;;;;1.40;1.27;;;16.00;1.40;;;17.46;100.00;95671.77;653599;216;31538;-71
2022/07/31 04:43:58;;;;;;;1.40;1.30;;;16.10;1.40;;;17.47;100.00;95668.61;618696;226;43203;-71
2022/07/31 04:46:39;;;;;;;1.33;1.23;;;16.20;1.40;;;17.54;100.00;95671.29;645653;216;31615;-71
2022/07/31 04:49:20;;;;;;;1.98;1.40;;;16.30;1.40;;;17.64;100.00;95667.67;647570;212;31778;-71
2022/07/31 04:52:02;;;;;;;0.90;0.90;;;16.40;1.40;;;17.80;100.00;95670.64;644314;216;31566;-71
2022/07/31 04:54:44;;;;;;;1.80;1.45;;;16.50;1.40;;;17.94;100.00;95666.13;651321;216;31501;-71
2022/07/31 04:57:25;;;;;;;1.20;1.10;;;16.70;1.40;;;18.10;100.00;95668.19;644920;216;31546;-71
2022/07/31 05:00:09;;;;;;;1.25;1.15;;;16.80;1.40;;;18.10;100.00;95669.58;650476;216;31546;-71
2022/07/31 05:02:50;;;;;;;1.30;1.20;;;16.80;1.40;;;18.16;100.00;95666.20;645819;212;31782;-72
2022/07/31 05:05:31;;;;;;;2.00;1.50;;;16.80;1.40;;;18.07;100.00;95661.87;647625;216;31553;-71
2022/07/31 05:08:13;;;;;;;1.60;1.50;;;16.80;1.40;;;18.08;100.00;95669.12;644773;212;31533;-71
2022/07/31 05:13:42;;;;;;;2.60;1.50;;;16.80;1.40;;;18.13;100.00;95660.92;650169;216;31586;-71
2022/07/31 05:16:27;;;;;;;1.95;1.20;;;16.80;1.40;;;18.25;100.00;95658.75;634520;212;32265;-71
2022/07/31 05:19:09;;;;;;;1.80;1.00;;;16.90;1.40;;;18.29;100.00;95657.98;649373;212;31629;-71
2022/07/31 05:21:50;;;;;;;1.37;1.27;;;17.00;1.40;;;18.34;100.00;95659.61;646744;212;31524;-71
2022/07/31 05:24:32;;;;;;;1.20;1.10;;;17.20;1.40;;;18.46;100.00;95656.78;643794;216;31594;-71
2022/07/31 05:27:14;;;;;;;1.17;1.08;;;17.30;1.40;;;18.59;100.00;95654.48;645488;212;31638;-73
2022/07/31 05:29:58;;;;;;;1.67;1.58;;;17.40;1.40;;;18.71;100.00;95653.97;650641;212;31567;-72
2022/07/31 05:32:40;;;;;;;1.85;1.42;;;17.60;1.40;;;18.82;100.00;95659.68;645310;212;32158;-71
2022/07/31 05:35:51;;;;;;;3.12;1.40;;;17.80;1.40;;;18.94;100.00;95656.58;646340;212;31560;-71
2022/07/31 05:38:33;;;;;;;1.60;1.50;;;17.90;1.40;;;19.22;100.00;95658.27;644117;212;31515;-74
2022/07/31 05:41:18;;;;;;;1.37;1.27;;;18.10;1.40;;;19.48;100.00;95665.33;623475;226;32001;-71
2022/07/31 05:43:59;;;;;;;1.70;1.60;;;18.50;1.40;;;19.75;100.00;95667.98;648681;212;31520;-71
2022/07/31 05:46:41;;;;;;;1.50;1.30;;;18.70;1.40;;;20.07;100.00;95670.00;646432;212;31587;-70
2022/07/31 05:49:25;;;;;;;1.50;1.30;;;18.80;1.40;;;20.50;100.00;95670.92;643481;215;31519;-73
2022/07/31 05:52:05;;;;;;;1.52;1.42;;;19.00;1.40;;;20.55;100.00;95675.33;646900;216;42176;-72
2022/07/31 05:54:46;;;;;;;1.37;1.20;;;19.10;1.40;;;20.51;100.00;95675.26;646526;216;43132;-72
2022/07/31 05:57:28;;;;;;;1.48;1.37;;;19.00;1.40;;;20.51;100.00;95678.31;646980;216;31617;-71
2022/07/31 06:00:12;;;;;;;2.25;1.33;;;19.00;1.40;;;20.40;100.00;95675.07;647744;216;31641;-71
2022/07/31 06:02:53;;;;;;;1.20;1.10;;;19.00;1.40;;;20.43;100.00;95678.06;647435;216;31555;-73
2022/07/31 06:05:35;;;;;;;3.03;1.37;;;19.00;1.40;;;20.56;100.00;95679.95;646272;212;32097;-73
2022/07/31 06:08:21;;;;;;;1.45;1.35;;;19.00;1.40;;;20.82;100.00;95680.13;645889;212;31626;-74
2022/07/31 06:11:04;;;;;;;2.67;1.40;;;19.20;1.40;;;20.90;100.00;95684.38;650650;212;32354;-73
2022/07/31 06:13:46;;;;;;;1.80;1.30;;;19.20;1.40;;;21.25;100.00;95684.73;634925;222;32404;-73
2022/07/31 06:16:28;;;;;;;2.00;1.50;;;19.30;1.40;;;21.18;100.00;95685.55;614625;226;32051;-72
2022/07/31 06:19:09;;;;;;;1.10;1.00;;;19.20;1.40;;;21.02;100.00;95683.86;650586;212;31591;-72
2022/07/31 06:21:51;;;;;;;1.37;1.27;;;19.10;1.40;;;20.60;100.00;95690.27;653387;216;31573;-71
2022/07/31 06:24:36;;;;;;;1.58;1.40;;;19.00;1.40;;;20.57;100.00;95694.54;646254;216;31544;-71
2022/07/31 06:27:18;;;;;;;1.48;1.37;;;19.10;1.40;;;20.58;100.00;95691.97;619334;222;32009;-71
2022/07/31 06:29:59;;;;;;;1.23;1.12;;;19.10;1.40;;;20.53;100.00;95692.03;650495;216;31567;-74
2022/07/31 06:32:41;;;;;;;1.73;1.30;;;19.10;1.40;;;20.44;100.00;95691.73;651547;212;31923;-72
2022/07/31 06:35:52;;;;;;;1.37;1.27;;;19.10;1.40;;;20.65;100.00;95684.50;646937;212;42164;-72
2022/07/31 06:38:35;;;;;;;2.10;1.33;;;19.30;1.40;;;20.64;100.00;95681.53;647146;216;31901;-71
2022/07/31 06:44:04;;;;;;;1.23;1.10;;;19.50;1.40;;;20.93;100.00;95683.95;605277;222;32049;-70
2022/07/31 06:46:46;;;;;;;2.80;1.20;;;19.30;1.40;;;20.17;100.00;95680.75;648397;216;31826;-72
2022/07/31 06:49:28;;;;;;;2.03;1.77;;;18.50;1.40;;;19.45;100.00;95687.77;650038;212;31546;-71
2022/07/31 06:52:10;;;;;;;3.10;1.40;;;18.20;1.40;;;19.39;100.00;95690.98;649363;212;31540;-72
2022/07/31 06:54:53;;;;;;;2.50;1.55;;;17.90;1.40;;;19.29;100.00;95693.08;641494;215;31730;-72
2022/07/31 06:57:38;;;;;;;3.90;1.33;;;17.30;1.40;;;18.73;100.00;95695.72;644472;216;31529;-71
2022/07/31 07:00:20;;;;;;;1.20;1.10;;;16.80;1.40;;;18.69;100.00;95697.34;652077;216;31570;-69
2022/07/31 07:03:04;;;;;;;1.60;1.15;;;17.00;1.40;;;18.60;100.00;95698.80;651000;212;32081;-69
2022/07/31 07:05:48;;;;;;;1.62;1.50;;;17.10;1.40;;;18.68;100.00;95701.47;644975;216;31567;-72
2022/07/31 07:08:30;;;;;;;1.77;1.47;;;17.80;1.40;;;18.79;100.00;95708.50;650861;212;31529;-72
2022/07/31 07:11:12;;;;;;;1.50;1.10;;;18.20;1.40;;;18.77;100.00;95711.80;646163;212;33549;-72
2022/07/31 07:13:54;;;;;;;1.42;1.30;;;18.50;1.40;;;18.80;100.00;95712.55;644818;216;31775;-72
2022/07/31 07:16:39;;;;;;;1.48;1.30;;;18.70;1.40;;;18.92;100.00;95712.84;649406;212;42153;-71
2022/07/31 07:19:20;;;;;;;1.90;1.80;;;18.80;1.40;;;19.14;100.00;95707.45;625429;222;31926;-71
2022/07/31 07:22:05;;;;;;;2.10;1.40;;;19.00;1.40;;;19.48;100.00;95697.84;649300;216;32060;-72
2022/07/31 07:24:47;;;;;;;1.80;1.70;;;19.20;1.40;;;19.81;100.00;95701.13;645829;216;31759;-72
2022/07/31 07:27:29;;;;;;;1.80;1.70;;;19.30;1.40;;;20.26;100.00;95694.95;649059;216;42863;-72
2022/07/31 07:30:11;;;;;;;1.40;1.30;;;19.40;1.40;;;20.20;100.00;95699.29;622953;225;31886;-72
2022/07/31 07:32:52;;;;;;;1.70;1.33;;;19.30;1.40;;;20.17;100.00;95699.75;654077;216;31797;-71
2022/07/31 07:35:51;;;;;;;1.35;1.25;;;19.30;1.40;;;20.25;100.00;95695.36;651078;212;31893;-72
2022/07/31 07:38:33;;;;;;;1.27;1.17;;;19.40;1.40;;;20.58;100.00;95696.60;642543;214;31559;-71
2022/07/31 07:41:15;;;;;;;1.50;1.40;;;19.50;1.40;;;20.79;100.00;95689.52;643235;217;31524;-71
2022/07/31 07:43:57;;;;;;;3.05;1.40;;;19.80;1.40;;;21.12;100.00;95687.41;643160;212;31597;-71
2022/07/31 07:46:38;;;;;;;1.52;1.42;;;20.00;1.40;;;21.44;100.00;95687.45;648302;216;31508;-71
2022/07/31 07:49:20;;;;;;;2.67;1.67;;;20.40;1.40;;;21.53;100.00;95681.81;644970;216;31562;-71
2022/07/31 07:52:04;;;;;;;3.70;1.30;;;20.40;1.40;;;21.68;100.00;95680.31;622605;226;31895;-72
2022/07/31 07:57:23;;;;;;;1.77;1.40;;;20.70;1.40;;;22.11;100.00;95682.89;652965;216;31723;-72
2022/07/31 08:00:06;;;;;;;1.60;1.20;;;20.80;1.40;;;21.74;100.00;95681.97;645170;213;31534;-72
2022/07/31 08:02:49;;;;;;;3.20;1.60;;;20.70;1.40;;;21.58;100.00;95679.56;651851;212;31776;-71
2022/07/31 08:05:30;;;;;;;1.50;1.25;;;20.70;1.40;;;21.67;100.00;95676.80;649676;216;31698;-71
2022/07/31 08:08:15;;;;;;;1.30;1.20;;;20.80;1.40;;;22.08;100.00;95680.52;650825;216;31783;-72
2022/07/31 08:10:58;;;;;;;2.50;1.40;;;21.10;1.40;;;22.56;100.00;95680.28;650580;212;32227;-72
2022/07/31 08:13:39;;;;;;;1.27;1.10;;;21.30;1.40;;;22.25;100.00;95682.91;648516;212;31554;-70
2022/07/31 08:16:21;;;;;;;1.98;1.75;;;21.20;1.40;;;22.35;100.00;95678.65;641705;216;31811;-70
2022/07/31 08:19:05;;;;;;;1.35;1.25;;;21.40;1.40;;;22.44;100.00;95680.54;647856;216;32097;-71
2022/07/31 08:21:47;;;;;;;1.30;1.20;;;21.30;1.40;;;22.63;100.00;95677.99;651928;216;31551;-71
2022/07/31 08:24:29;;;;;;;1.20;1.10;;;21.30;1.40;;;22.58;100.00;95674.62;649788;212;31553;-71
2022/07/31 08:29:58;;;;;;;2.17;1.12;;;21.50;1.40;;;22.57;100.00;95674.30;647443;216;32180;-70
2022/07/31 08:32:39;;;;;;;1.30;1.20;;;21.30;1.40;;;22.59;100.00;95672.70;647335;216;37213;-70
2022/07/31 08:35:51;;;;;;;1.50;1.40;;;21.50;1.40;;;22.49;100.00;95667.72;647478;216;31600;-71
2022/07/31 08:38:36;;;;;;;1.62;1.52;;;21.50;1.40;;;22.65;100.00;95663.54;649232;216;31513;-70
2022/07/31 08:41:17;;;;;;;1.83;1.30;;;21.50;1.40;;;23.14;100.00;95668.56;646631;212;31497;-70
2022/07/31 08:43:59;;;;;;;1.62;1.52;;;22.10;1.40;;;22.98;99.78;95671.35;648549;212;32121;-70
2022/07/31 08:46:41;;;;;;;1.57;1.47;;;22.10;1.40;;;23.14;96.70;95672.37;620528;225;32063;-70
2022/07/31 08:49:22;;;;;;;1.80;1.25;;;22.20;1.40;;;23.79;94.57;95665.48;645671;216;31495;-70
2022/07/31 08:52:04;;;;;;;1.50;1.40;;;22.80;1.40;;;23.98;91.96;95667.73;646987;216;33097;-71
2022/07/31 08:54:46;;;;;;;1.60;1.50;;;23.00;1.40;;;24.23;87.33;95666.27;647351;216;31560;-70
2022/07/31 08:57:28;;;;;;;3.85;2.15;;;23.30;1.40;;;25.00;85.51;95664.94;648917;216;31496;-71
2022/07/31 09:00:18;;;;;;;2.40;1.40;;;23.90;1.40;;;26.02;81.53;95658.45;648472;216;31515;-71
2022/07/31 09:02:59;;;;;;;2.10;1.50;;;24.70;1.40;;;25.93;74.51;95658.08;645556;212;31508;-70
2022/07/31 09:05:40;;;;;;;1.42;1.33;;;24.50;1.40;;;25.70;77.18;95656.72;651508;216;31582;-71
2022/07/31 09:08:22;;;;;;;1.50;1.30;;;24.60;1.40;;;26.00;76.86;95655.13;644697;216;31649;-70
2022/07/31 09:11:05;;;;;;;2.25;1.17;;;24.60;1.40;;;26.70;80.49;95651.86;646671;216;32256;-70
2022/07/31 09:14:01;;;;;;;1.40;1.30;;;25.30;1.40;;;26.45;71.13;95652.38;651158;216;42727;-71
2022/07/31 09:16:46;;;;;;;1.60;1.50;;;24.80;1.40;;;25.68;71.45;95657.51;646390;212;32054;-70
2022/07/31 09:19:37;;;;;;;1.30;1.20;;;24.40;1.40;;;25.99;73.75;95647.39;649455;212;31542;-70
2022/07/31 09:22:21;;;;;;;1.62;1.52;;;24.80;1.40;;;26.24;67.66;95645.72;645168;216;31584;-70
2022/07/31 09:25:06;;;;;;;1.30;1.20;;;26.00;1.40;;;27.09;63.64;95641.05;623066;226;31885;-71
2022/07/31 09:27:47;;;;;;;1.60;0.80;;;28.20;1.40;;;28.60;58.56;95635.23;647127;216;31746;-70
2022/07/31 09:30:32;;;;;;;1.40;1.30;;;29.10;1.40;;;29.54;61.10;95633.56;646251;216;31550;-71
2022/07/31 09:35:54;;;;;;;1.10;1.00;;;31.30;99.90;;;30.93;50.91;95635.47;648921;212;31532;-72
2022/07/31 09:38:38;;;;;;;1.80;1.40;;;32.40;99.90;;;32.31;52.60;95631.25;647528;216;42125;-71
2022/07/31 09:41:21;;;;;;;2.42;1.45;;;32.60;99.90;;;33.55;48.51;95626.45;650146;212;31625;-71
2022/07/31 09:44:06;;;;;;;4.20;1.10;;;33.20;99.90;;;34.19;45.87;95623.13;648266;212;31679;-71
2022/07/31 09:46:49;;;;;;;2.72;1.90;;;33.50;99.90;;;34.48;47.50;95619.89;620214;222;32080;-71
2022/07/31 09:49:31;;;;;;;1.77;1.23;;;33.30;99.90;;;35.31;47.65;95621.47;645657;216;31642;-71
2022/07/31 09:52:18;;;;;;;1.35;1.20;;;34.30;99.90;;;35.08;45.47;95621.92;648536;216;31936;-71
2022/07/31 09:55:04;;;;;;;1.80;1.60;;;33.90;99.90;;;35.85;42.82;95624.91;646314;212;31606;-72
2022/07/31 09:57:52;;;;;;;1.40;1.30;;;33.60;99.90;;;33.50;42.87;95621.16;646629;216;32181;-71
2022/07/31 10:00:34;;;;;;;1.40;1.30;;;31.60;99.90;;;31.43;44.61;95627.25;645141;212;31628;-71
2022/07/31 10:03:17;;;;;;;1.50;1.40;;;30.40;99.90;;;32.12;45.19;95621.00;647969;216;31555;-71
2022/07/31 10:05:57;;;;;;;1.50;1.40;;;31.10;99.90;;;32.87;44.77;95621.55;652784;216;32076;-71
2022/07/31 10:11:19;;;;;;;1.70;1.30;;;33.10;99.90;;;36.17;48.32;95616.97;651629;212;31603;-71
2022/07/31 10:14:01;;;;;;;1.48;1.37;;;34.20;99.90;;;36.85;39.32;95620.09;652051;216;31520;-71
2022/07/31 10:16:43;;;;;;;1.60;1.50;;;35.00;99.90;;;37.44;36.82;95611.09;651415;212;32083;-71
2022/07/31 10:19:24;;;;;;;1.33;1.23;;;35.10;99.90;;;37.61;36.54;95604.86;646539;216;31590;-72
2022/07/31 10:22:06;;;;;;;2.90;1.50;;;34.30;99.90;;;36.56;37.56;95611.86;625998;225;31835;-72
2022/07/31 10:24:47;;;;;;;3.95;1.58;;;31.70;99.90;;;35.07;37.30;95611.50;650666;216;31517;-71
2022/07/31 10:27:32;;;;;;;1.35;1.00;;;29.70;99.90;;;32.50;40.48;95620.06;644290;216;32134;-71
2022/07/31 10:30:14;;;;;;;1.50;1.40;;;27.90;99.90;;;31.62;43.15;95623.52;647334;216;31557;-71
2022/07/31 10:32:57;;;;;;;1.50;1.40;;;27.50;99.90;;;29.29;45.36;95626.66;646113;212;32286;-71
2022/07/31 10:35:59;;;;;;;1.50;1.40;;;26.20;99.90;;;30.21;44.10;95623.42;644168;216;31574;-71
2022/07/31 10:39:00;;;;;;;1.58;1.48;;;26.70;99.90;;;29.62;45.27;95625.63;647888;216;42393;-71
2022/07/31 10:41:48;;;;;;;1.20;1.10;;;26.50;99.90;;;28.00;50.79;95630.62;646465;216;31603;-70
2022/07/31 10:44:39;;;;;;;1.83;1.10;;;25.90;1.00;;;28.09;50.17;95628.70;617441;226;31926;-70
2022/07/31 10:47:21;;;;;;;1.20;1.10;;;26.30;99.90;;;28.00;48.52;95626.17;649593;216;31500;-70
2022/07/31 10:50:08;;;;;;;1.50;1.40;;;26.40;99.90;;;28.91;48.68;95624.89;645271;212;32555;-70
2022/07/31 10:52:49;;;;;;;1.37;1.08;;;27.20;99.90;;;28.95;47.30;95624.67;647912;216;42334;-70
2022/07/31 10:55:31;;;;;;;1.40;1.30;;;27.00;99.90;;;29.80;46.22;95622.33;645146;216;31503;-70
2022/07/31 10:58:15;;;;;;;2.15;1.30;;;27.70;99.90;;;28.10;48.39;95623.71;646463;216;31549;-70
2022/07/31 11:01:05;;;;;;;1.20;1.10;;;26.70;99.90;;;29.32;46.39;95613.13;648606;216;31554;-70
2022/07/31 11:03:48;;;;;;;1.20;1.05;;;27.60;99.90;;;29.78;46.99;95612.88;647218;216;31512;-70
2022/07/31 11:06:39;;;;;;;1.20;1.10;;;28.10;99.90;;;30.57;44.30;95604.39;646811;212;31584;-71
2022/07/31 11:09:23;;;;;;;1.30;1.20;;;28.50;99.90;;;32.12;43.51;95600.97;646661;216;42285;-71
2022/07/31 11:12:05;;;;;;;1.10;1.00;;;30.10;99.90;;;32.44;42.09;95606.31;645374;216;31566;-71
2022/07/31 11:14:47;;;;;;;1.95;1.10;;;30.80;99.90;;;33.85;40.52;95594.61;643088;216;31699;-71
2022/07/31 11:17:32;;;;;;;1.50;1.40;;;31.90;99.90;;;35.57;39.90;95587.50;646265;212;31843;-71
2022/07/31 11:22:54;;;;;;;1.20;1.20;;;35.30;99.90;;;38.23;35.03;95582.02;650450;212;31709;-71
2022/07/31 11:25:39;;;;;;;1.50;1.40;;;34.60;99.90;;;36.79;36.86;95582.30;651823;216;31555;-72
2022/07/31 11:28:22;;;;;;;1.40;1.30;;;31.90;99.90;;;33.92;39.13;95589.66;648316;216;31501;-72
2022/07/31 11:31:03;;;;;;;1.60;1.40;;;30.10;99.90;;;33.92;38.76;95589.02;646492;216;42187;-71
2022/07/31 11:35:52;;;;;;;3.08;1.70;;;30.90;99.90;;;33.62;39.54;95588.52;643842;212;31585;-71
2022/07/31 11:38:34;;;;;;;1.60;1.50;;;31.10;99.90;;;34.03;39.77;95582.59;646624;216;31612;-71
2022/07/31 11:41:20;;;;;;;1.20;1.20;;;30.60;99.90;;;33.68;40.37;95582.66;645760;216;32032;-71
2022/07/31 11:44:02;;;;;;;1.60;1.50;;;30.10;99.90;;;33.93;42.58;95579.61;652598;216;31696;-71
2022/07/31 11:46:45;;;;;;;1.10;1.10;;;29.70;99.90;;;34.20;38.54;95579.38;648101;212;31579;-71
2022/07/31 11:49:31;;;;;;;1.60;1.10;;;31.30;99.90;;;36.04;37.62;95574.34;646283;212;31625;-71
2022/07/31 11:52:11;;;;;;;1.40;1.12;;;32.70;99.90;;;35.18;38.11;95579.86;649054;212;31576;-71
2022/07/31 11:54:51;;;;;;;1.50;1.30;;;30.90;99.90;;;32.68;40.75;95577.64;644946;216;42313;-71
2022/07/31 11:57:32;;;;;;;2.75;1.85;;;29.60;99.90;;;32.97;40.13;95576.05;645820;216;31534;-71